< < Back
Terminal Aerodrome Forecast


Current Version              Previous Versions:   1  2  3  4  5  6  7  8  9  

Terminal Aerodrome Forecast

718
FTUS42 KCHS 301100
TAFCHS
TAF
KCHS 301138Z 3012/3112 VRB03KT P6SM SCT015
     FM301500 14008KT P6SM SCT035
     FM310100 17003KT P6SM SCT015=

Latest METAR

243
SAUS80 KWBC 301200
MTRCHS
METAR KCHS 301156Z 00000KT 10SM FEW045 26/24 A3017 RMK AO2 SLP215
T02610239 10261 20233 53011 $


USA.gov is the U.S. government's official web portal to all federal, state and local government web resources and services.